Hlavní strana
METAR-TAF:

METAR-TAF

Letiště :

Curaçao, Nizozemské Antily

zeměpisná šířka: 12-12N, zeměpisná délka: 068-58W, výška: 9 m

Aktuální stav počasí

Zpráva byla vytvořena před 19 minutami, v 00:00 UTC
Východní vítr 11 kt
Teplota 27°C
Vlhkost vzduchu 79%
Tlak 1012 hPa
Viditelnost 10 km a více
Skoro jasno ve výšce 1800 ft

METAR: TNCC 180000Z 09011KT 9999 FEW018 27/23 Q1012 NOSIG

Čas: 20:19 (00:19 UTC)

Předpověď počasí

Zpráva byla vytvořena před 2 hodinami a 19 minutami, v 22:00 UTC
Předpověď platná od 18 v 00 UTC do 18 v 24 UTC
Východní vítr 15 kt
Viditelnost 10 km a více
Polojasno ve výšce 1800 ft
Dočasný
od 18 v 06 UTC do 18 v 18 UTC
Viditelnost: 7000 m
Oblačno až skoro zataženo ve výšce 1500 ft
dešťové přeháňky

TAF: TNCC 172200Z 1800/1824 10015KT 9999 SCT018 TEMPO 1806/1818 7000 SHRA BKN015

Stav a předpovědi počasí z více než 4 000 letišť (zprávy METAR a TAF).

Červené a žluté tečky na mapě představují dostupné meteorologické stanice.

Když kurzor umístíte na tečku, zobrazí se název stanice.

Pak kliknutím zobrazíte stav a předpověď počasí.

Chcete-li změnit mapu, kliknutím na zelené tlačítko se znaménkem +mapu přiblížíte, kliknutím na zelené tlačítko se znaménkem – mapu oddálíte a kliknutím na zelené šipky přejdete na sousední mapy.


METAR-TAF: